Time;durP1;ratioP1;P1;durP2;ratioP2;P2;SDS_P1;SDS_P2;PMS_P1;PMS_P2;Temp;Humidity;BMP_temperature;BMP_pressure;BME280_temperature;BME280_humidity;BME280_pressure;Samples;Min_cycle;Max_cycle;Signal;HPM_P1;HPM_P2
2023/04/05 00:00:27;;;;;;;8.15;5.30;;;1.60;99.90;;;;;;5093974;28;20047;-82
2023/04/05 00:02:55;;;;;;;11.02;5.40;;;1.60;99.90;;;;;;5094306;28;20036;-81
2023/04/05 00:05:28;;;;;;;10.35;5.03;;;1.60;99.90;;;;;;5077293;28;20052;-80
2023/04/05 00:07:55;;;;;;;8.40;4.88;;;1.50;99.90;;;;;;5077056;28;20449;-81
2023/04/05 00:10:21;;;;;;;;;;;1.50;99.90;;;;;;5077385;28;20070;-81
2023/04/05 00:12:46;;;;;;;9.07;5.47;;;1.50;99.90;;;;;;5094464;28;20326;-82
2023/04/05 00:15:12;;;;;;;10.93;4.88;;;1.50;99.90;;;;;;5094936;28;20044;-81
2023/04/05 00:17:37;;;;;;;10.05;4.88;;;1.40;99.90;;;;;;5077125;28;20070;-81
2023/04/05 00:20:06;;;;;;;8.77;5.20;;;1.90;99.90;;;;;;5093913;28;20043;-81
2023/04/05 00:22:34;;;;;;;8.48;5.05;;;1.30;99.90;;;;;;5094578;28;20128;-82
2023/04/05 00:25:03;;;;;;;8.73;4.63;;;1.30;99.90;;;;;;5094625;28;20084;-80
2023/04/05 00:27:29;;;;;;;7.35;5.13;;;1.30;99.90;;;;;;5060849;28;20051;-81
2023/04/05 00:29:55;;;;;;;9.82;5.45;;;1.30;99.90;;;;;;5076908;28;20111;-82
2023/04/05 00:32:21;;;;;;;14.35;5.53;;;1.20;99.90;;;;;;5076666;28;20044;-82
2023/04/05 00:34:47;;;;;;;12.80;5.80;;;2.10;99.90;;;;;;5077262;28;20151;-82
2023/04/05 00:37:12;;;;;;;11.98;5.38;;;1.10;99.90;;;;;;5093188;28;20083;-81
2023/04/05 00:39:38;;;;;;;8.68;5.43;;;1.10;99.90;;;;;;5076509;28;20138;-82
2023/04/05 00:42:05;;;;;;;13.27;6.35;;;1.10;99.90;;;;;;5093308;28;20047;-80
2023/04/05 00:44:34;;;;;;;13.87;7.00;;;1.00;99.90;;;;;;5076607;28;20066;-82
2023/04/05 00:47:04;;;;;;;14.93;6.85;;;1.10;99.90;;;;;;5093284;28;20535;-80
2023/04/05 00:49:31;;;;;;;17.52;7.32;;;1.00;99.90;;;;;;5092999;28;20384;-81
2023/04/05 00:51:57;;;;;;;;;;;1.00;99.90;;;;;;5094721;28;20044;-80
2023/04/05 00:54:24;;;;;;;8.88;5.38;;;0.90;99.90;;;;;;5093028;28;20280;-81
2023/04/05 00:56:54;;;;;;;11.73;5.88;;;0.90;99.90;;;;;;5093316;28;20032;-82
2023/04/05 00:59:20;;;;;;;8.43;5.45;;;0.80;99.90;;;;;;5093156;28;20555;-81
2023/04/05 01:01:53;;;;;;;14.00;5.22;;;0.80;99.90;;;;;;5092682;28;20395;-80
2023/04/05 01:04:24;;;;;;;9.73;5.65;;;0.70;99.90;;;;;;5093009;28;20070;-81
2023/04/05 01:07:11;;;;;;;11.70;6.00;;;0.70;99.90;;;;;;5092606;28;20044;-80
2023/04/05 01:09:51;;;;;;;13.63;5.55;;;0.60;99.90;;;;;;5093952;28;20044;-82
2023/04/05 01:12:19;;;;;;;10.25;5.38;;;0.60;99.90;;;;;;5093871;28;20076;-80
2023/04/05 01:14:48;;;;;;;9.07;5.47;;;0.60;99.90;;;;;;5093328;28;20059;-80
2023/04/05 01:17:20;;;;;;;10.50;5.13;;;0.90;99.90;;;;;;5093746;28;20039;-82
2023/04/05 01:19:52;;;;;;;11.65;5.10;;;0.50;99.90;;;;;;5093471;28;20097;-82
2023/04/05 01:22:42;;;;;;;11.00;5.20;;;0.50;99.90;;;;;;5092895;28;20040;-81
2023/04/05 01:25:35;;;;;;;7.95;4.80;;;0.40;99.90;;;;;;5092548;28;20135;-81
2023/04/05 01:28:26;;;;;;;8.80;5.45;;;0.30;99.90;;;;;;5093203;28;20036;-81
2023/04/05 01:31:00;;;;;;;8.55;4.90;;;0.30;99.90;;;;;;5092692;28;20086;-81
2023/04/05 01:33:40;;;;;;;12.43;5.43;;;0.30;99.90;;;;;;5093925;28;20048;-82
2023/04/05 01:36:20;;;;;;;9.52;5.22;;;0.20;99.90;;;;;;5075630;28;20047;-81
2023/04/05 01:38:49;;;;;;;9.38;5.38;;;0.10;99.90;;;;;;5092700;28;20491;-81
2023/04/05 01:41:15;;;;;;;8.73;5.65;;;0.10;99.90;;;;;;5093551;28;20051;-81
2023/04/05 01:43:40;;;;;;;11.57;5.43;;;2.70;99.90;;;;;;5075481;28;20462;-81
2023/04/05 01:46:06;;;;;;;11.88;5.88;;;0.00;99.90;;;;;;5092259;28;20040;-82
2023/04/05 01:48:32;;;;;;;11.48;5.72;;;0.10;99.90;;;;;;5093307;28;20055;-82
2023/04/05 01:50:57;;;;;;;9.57;5.15;;;0.10;99.90;;;;;;5092502;28;20139;-81
2023/04/05 01:53:24;;;;;;;10.05;5.93;;;0.10;99.90;;;;;;5093813;28;20044;-83
2023/04/05 01:55:50;;;;;;;;;;;0.10;99.90;;;;;;5092921;28;20091;-82
2023/04/05 01:58:15;;;;;;;10.77;5.72;;;0.10;99.90;;;;;;5092005;28;19920;-81
2023/04/05 02:00:41;;;;;;;11.90;6.50;;;0.00;99.90;;;;;;5092385;28;20507;-82
2023/04/05 02:03:06;;;;;;;13.75;6.63;;;-0.10;99.90;;;;;;5075345;28;20107;-83
2023/04/05 02:05:32;;;;;;;13.65;6.50;;;0.00;99.90;;;;;;5092304;28;20130;-81
2023/04/05 02:07:58;;;;;;;12.32;5.75;;;0.60;99.90;;;;;;5093677;28;20527;-83
2023/04/05 02:10:23;;;;;;;11.65;6.20;;;0.00;99.90;;;;;;5092301;28;20048;-83
2023/04/05 02:12:49;;;;;;;12.70;6.32;;;-0.10;99.90;;;;;;5092257;28;20551;-83
2023/04/05 02:15:15;;;;;;;12.70;6.10;;;0.40;99.90;;;;;;5075734;28;20049;-82
2023/04/05 02:17:44;;;;;;;11.52;6.10;;;0.20;99.90;;;;;;5092269;28;20408;-83
2023/04/05 02:20:13;;;;;;;11.38;6.80;;;-0.10;99.90;;;;;;5074926;28;20047;-81
2023/04/05 02:22:39;;;;;;;11.20;6.03;;;1.30;99.90;;;;;;5093117;28;20480;-81
2023/04/05 02:25:08;;;;;;;11.98;6.22;;;-0.20;99.90;;;;;;5093180;28;20044;-82
2023/04/05 02:27:34;;;;;;;10.57;6.40;;;-0.10;99.90;;;;;;5092093;28;20048;-82
2023/04/05 02:29:59;;;;;;;14.27;6.55;;;-0.20;99.90;;;;;;5092223;28;20395;-82
2023/04/05 02:32:25;;;;;;;10.18;6.40;;;0.40;99.90;;;;;;5075285;28;20048;-81
2023/04/05 02:34:52;;;;;;;10.93;6.03;;;-0.30;99.90;;;;;;5093167;28;20044;-81
2023/04/05 02:37:18;;;;;;;;;;;-0.30;99.90;;;;;;5094892;28;20411;-81
2023/04/05 02:39:44;;;;;;;14.45;6.05;;;-0.20;99.90;;;;;;5096688;28;19927;-83
2023/04/05 02:42:09;;;;;;;11.20;6.22;;;-0.20;99.90;;;;;;5095525;28;20036;-82
2023/04/05 02:44:35;;;;;;;15.02;6.25;;;-0.20;99.90;;;;;;5078875;28;20425;-82
2023/04/05 02:47:01;;;;;;;13.63;6.35;;;-0.20;99.90;;;;;;5095155;28;20040;-82
2023/04/05 02:49:27;;;;;;;9.75;5.50;;;-0.90;99.90;;;;;;5096468;28;20048;-82
2023/04/05 02:51:54;;;;;;;11.60;6.28;;;-0.20;99.90;;;;;;5078902;28;20044;-82
2023/04/05 02:54:20;;;;;;;10.80;6.22;;;-0.20;99.90;;;;;;5096710;28;20091;-81
2023/04/05 02:56:46;;;;;;;14.07;6.60;;;-0.20;99.90;;;;;;5096417;28;20076;-82
2023/04/05 02:59:12;;;;;;;14.52;6.80;;;-0.20;99.90;;;;;;5095186;28;20044;-82
2023/04/05 03:01:42;;;;;;;11.57;7.13;;;-0.30;99.90;;;;;;5095290;28;20063;-82
2023/04/05 03:04:10;;;;;;;11.68;6.68;;;-0.30;99.90;;;;;;5095654;28;20104;-83
2023/04/05 03:06:37;;;;;;;10.65;6.00;;;-0.30;99.90;;;;;;5095213;28;20050;-82
2023/04/05 03:09:03;;;;;;;12.32;5.90;;;-0.50;99.90;;;;;;5095229;28;20076;-80
2023/04/05 03:11:30;;;;;;;11.70;6.73;;;-0.30;99.90;;;;;;5095346;28;20105;-82
2023/04/05 03:13:55;;;;;;;13.07;6.43;;;-0.20;99.90;;;;;;5095983;28;20661;-83
2023/04/05 03:16:21;;;;;;;12.50;6.38;;;-0.30;99.90;;;;;;5094848;28;20097;-81
2023/04/05 03:18:48;;;;;;;9.43;6.05;;;-0.40;99.90;;;;;;5095749;28;20150;-81
2023/04/05 03:21:16;;;;;;;11.82;7.03;;;-0.20;99.90;;;;;;5078128;28;20058;-82
2023/04/05 03:23:45;;;;;;;12.20;6.55;;;-0.50;99.90;;;;;;5095690;28;20472;-82
2023/04/05 03:26:12;;;;;;;11.25;6.53;;;-0.50;99.90;;;;;;5095910;28;20044;-82
2023/04/05 03:28:37;;;;;;;12.95;6.78;;;-0.20;99.90;;;;;;5094919;28;20051;-83
2023/04/05 03:31:03;;;;;;;14.40;7.07;;;-0.50;99.90;;;;;;5095365;28;20044;-81
2023/04/05 03:33:28;;;;;;;10.90;6.00;;;-0.50;99.90;;;;;;5094956;28;20046;-83
2023/04/05 03:35:54;;;;;;;12.20;6.68;;;-0.50;99.90;;;;;;5094725;28;20127;-82
2023/04/05 03:38:20;;;;;;;11.32;6.90;;;-0.50;99.90;;;;;;5095618;28;20048;-81
2023/04/05 03:40:46;;;;;;;13.60;6.32;;;-0.50;99.90;;;;;;5094504;28;20040;-81
2023/04/05 03:43:11;;;;;;;10.70;6.57;;;-0.60;99.90;;;;;;5094553;28;20482;-84
2023/04/05 03:45:37;;;;;;;13.07;6.93;;;-0.10;99.90;;;;;;5094431;28;20468;-82
2023/04/05 03:48:03;;;;;;;14.05;6.65;;;-0.70;99.90;;;;;;5094323;28;20193;-82
2023/04/05 03:50:28;;;;;;;11.05;6.78;;;-0.60;99.90;;;;;;5095539;28;20135;-82
2023/04/05 03:52:54;;;;;;;13.57;7.03;;;-0.60;99.90;;;;;;5095384;28;20125;-83
2023/04/05 03:55:20;;;;;;;12.50;7.70;;;-0.90;99.90;;;;;;5094163;28;20113;-81
2023/04/05 03:57:46;;;;;;;11.07;6.78;;;-0.70;99.90;;;;;;5095247;28;20143;-82
2023/04/05 04:00:16;;;;;;;13.38;7.43;;;-0.70;99.90;;;;;;5094250;28;20044;-83
2023/04/05 04:02:46;;;;;;;13.15;7.00;;;-0.70;99.90;;;;;;5093754;28;20134;-82
2023/04/05 04:05:13;;;;;;;12.23;7.72;;;-0.70;99.90;;;;;;5095337;28;20044;-83
2023/04/05 04:07:40;;;;;;;12.38;6.90;;;-0.80;99.90;;;;;;5077374;28;20052;-81
2023/04/05 04:10:07;;;;;;;13.40;6.80;;;-0.70;99.90;;;;;;5095127;28;20110;-82
2023/04/05 04:12:33;;;;;;;11.98;6.88;;;-0.90;99.90;;;;;;5094923;28;20040;-84
2023/04/05 04:14:58;;;;;;;14.27;6.82;;;-0.80;99.90;;;;;;5077006;28;20048;-83
2023/04/05 04:17:31;;;;;;;13.05;6.80;;;-1.20;99.90;;;;;;5094592;28;20120;-82
2023/04/05 04:19:57;;;;;;;13.95;7.22;;;-1.00;99.90;;;;;;5076868;28;20083;-83
2023/04/05 04:22:32;;;;;;;14.00;7.80;;;-1.00;99.90;;;;;;5093741;28;20465;-83
2023/04/05 04:25:03;;;;;;;13.15;7.22;;;-1.00;99.90;;;;;;5093538;28;20123;-83
2023/04/05 04:27:29;;;;;;;15.18;7.32;;;-0.50;99.90;;;;;;5093727;28;20055;-83
2023/04/05 04:30:00;;;;;;;13.38;6.93;;;-1.00;99.90;;;;;;5094827;28;20047;-82
2023/04/05 04:32:46;;;;;;;12.48;6.95;;;-0.80;99.90;;;;;;5094886;28;20497;-83
2023/04/05 04:35:16;;;;;;;13.70;7.18;;;-1.00;99.90;;;;;;5093534;28;20044;-86
2023/04/05 04:37:46;;;;;;;10.05;6.85;;;-1.00;99.90;;;;;;5094364;28;20402;-83
2023/04/05 04:40:18;;;;;;;14.38;7.75;;;-1.00;99.90;;;;;;5093486;28;20546;-83
2023/04/05 04:42:47;;;;;;;14.27;6.97;;;-1.20;99.90;;;;;;5094561;28;20131;-82
2023/04/05 04:45:17;;;;;;;12.70;7.50;;;-1.00;99.90;;;;;;5093327;28;20132;-82
2023/04/05 04:47:43;;;;;;;15.88;7.72;;;-1.10;99.90;;;;;;5093065;28;20101;-82
2023/04/05 04:50:10;;;;;;;11.32;6.50;;;-1.20;99.90;;;;;;5094279;28;20132;-86
2023/04/05 04:52:37;;;;;;;13.07;7.70;;;-1.30;99.90;;;;;;5093026;28;20044;-84
2023/04/05 04:55:03;;;;;;;11.05;7.20;;;-1.20;99.90;;;;;;5094582;28;20054;-84
2023/04/05 04:57:29;;;;;;;12.48;7.50;;;-1.40;99.90;;;;;;5094242;28;20044;-85
2023/04/05 04:59:54;;;;;;;12.70;6.75;;;-1.30;99.90;;;;;;5092849;28;20128;-83
2023/04/05 05:02:24;;;;;;;12.10;7.38;;;-1.40;99.90;;;;;;5092908;28;20036;-86
2023/04/05 05:04:50;;;;;;;14.90;6.78;;;-1.50;99.90;;;;;;5076442;28;20043;-86
2023/04/05 05:07:16;;;;;;;10.80;7.28;;;-1.50;99.90;;;;;;5094065;28;20392;-86
2023/04/05 05:09:42;;;;;;;13.85;7.60;;;-1.50;99.90;;;;;;5076624;28;20138;-85
2023/04/05 05:12:08;;;;;;;17.20;8.13;;;-1.50;99.90;;;;;;5092830;28;20158;-83
2023/04/05 05:14:34;;;;;;;15.25;7.90;;;-1.50;99.90;;;;;;5093952;28;20503;-82
2023/04/05 05:16:59;;;;;;;14.57;8.23;;;-1.50;99.90;;;;;;5094004;28;20484;-82
2023/04/05 05:19:25;;;;;;;15.75;8.10;;;-1.50;99.90;;;;;;5075943;28;20043;-82
2023/04/05 05:21:52;;;;;;;11.88;8.02;;;-1.50;99.90;;;;;;5075906;28;20050;-82
2023/04/05 05:24:19;;;;;;;14.68;7.88;;;-1.50;99.90;;;;;;5076129;28;20193;-82
2023/04/05 05:26:44;;;;;;;13.60;8.82;;;-1.40;99.90;;;;;;5092332;28;20075;-81
2023/04/05 05:29:10;;;;;;;16.25;8.75;;;-1.40;99.90;;;;;;5092698;28;20117;-81
2023/04/05 05:31:36;;;;;;;17.90;8.65;;;-1.30;99.90;;;;;;5093658;28;20053;-81
2023/04/05 05:34:02;;;;;;;15.63;8.70;;;-1.30;99.90;;;;;;5093572;28;20118;-81
2023/04/05 05:36:27;;;;;;;19.42;8.85;;;-1.30;99.90;;;;;;5093581;28;20047;-82
2023/04/05 05:38:53;;;;;;;15.02;9.25;;;-0.50;99.90;;;;;;5075945;28;20040;-82
2023/04/05 05:41:21;;;;;;;15.32;9.50;;;-1.20;99.90;;;;;;5093673;28;20074;-82
2023/04/05 05:43:46;;;;;;;20.63;10.30;;;-1.10;99.90;;;;;;5093507;28;20051;-82
2023/04/05 05:46:12;;;;;;;17.33;10.07;;;-1.10;99.90;;;;;;5092600;28;20123;-82
2023/04/05 05:48:39;;;;;;;18.13;9.55;;;-0.70;99.90;;;;;;5092321;28;20456;-82
2023/04/05 05:51:08;;;;;;;17.70;10.15;;;-1.00;99.90;;;;;;5093335;28;20048;-81
2023/04/05 05:53:38;;;;;;;18.98;10.20;;;-0.90;99.90;;;;;;5092360;28;20070;-82
2023/04/05 05:56:04;;;;;;;16.42;10.43;;;-0.90;99.90;;;;;;5075574;28;20127;-82
2023/04/05 05:58:30;;;;;;;20.73;11.15;;;-0.90;99.90;;;;;;5092717;28;20093;-82
2023/04/05 06:00:57;;;;;;;37.33;10.67;;;-0.80;99.90;;;;;;5092774;28;20392;-78
2023/04/05 06:03:28;;;;;;;22.13;10.63;;;-0.80;99.90;;;;;;5092097;28;20044;-84
2023/04/05 06:05:55;;;;;;;16.30;10.02;;;0.80;99.90;;;;;;5093379;28;20040;-79
2023/04/05 06:08:22;;;;;;;16.08;9.57;;;-0.60;99.90;;;;;;5093166;28;20491;-81
2023/04/05 06:10:49;;;;;;;22.27;10.03;;;-0.50;99.90;;;;;;5093347;28;20404;-87
2023/04/05 06:13:15;;;;;;;18.60;10.23;;;-0.60;99.90;;;;;;5096393;28;20043;-76
2023/04/05 06:15:44;;;;;;;22.75;10.20;;;-0.40;99.90;;;;;;5097080;28;20051;-77
2023/04/05 06:18:10;;;;;;;14.80;9.60;;;-0.30;99.90;;;;;;5097013;28;20491;-81
2023/04/05 06:20:39;;;;;;;19.77;10.25;;;-0.30;99.90;;;;;;5096271;28;20043;-82
2023/04/05 06:23:09;;;;;;;15.20;9.75;;;-0.20;99.90;;;;;;5096026;28;20036;-82
2023/04/05 06:25:35;;;;;;;17.35;9.95;;;-0.10;99.90;;;;;;5079172;28;20105;-80
2023/04/05 06:28:04;;;;;;;17.37;9.83;;;0.00;99.90;;;;;;5096073;28;20040;-80
2023/04/05 06:30:31;;;;;;;18.80;10.07;;;0.10;99.90;;;;;;5096991;28;20048;-80
2023/04/05 06:32:57;;;;;;;18.70;10.00;;;0.20;99.90;;;;;;5095846;28;20052;-80
2023/04/05 06:35:23;;;;;;;17.40;9.82;;;0.30;99.90;;;;;;5095820;28;20052;-80
2023/04/05 06:37:50;;;;;;;17.08;10.38;;;0.40;99.90;;;;;;5096829;28;20131;-80
2023/04/05 06:40:16;;;;;;;13.50;9.45;;;0.60;99.90;;;;;;5095709;28;20082;-79
2023/04/05 06:42:42;;;;;;;17.23;9.38;;;0.70;99.90;;;;;;5096536;28;20051;-80
2023/04/05 06:45:08;;;;;;;17.67;8.88;;;0.90;99.90;;;;;;5095988;28;20127;-79
2023/04/05 06:47:35;;;;;;;14.07;8.93;;;1.00;99.90;;;;;;5096595;28;20387;-81
2023/04/05 06:50:02;;;;;;;23.70;9.52;;;1.20;99.90;;;;;;5096176;28;20100;-81
2023/04/05 06:52:28;;;;;;;15.73;8.95;;;1.40;99.90;;;;;;5096377;28;20484;-80
2023/04/05 06:54:54;;;;;;;16.83;8.37;;;1.60;99.90;;;;;;5095463;28;20419;-79
2023/04/05 06:57:19;;;;;;;13.02;8.15;;;1.80;99.90;;;;;;5096412;28;20289;-81
2023/04/05 06:59:45;;;;;;;12.02;8.13;;;2.00;99.90;;;;;;5096363;28;20047;-81
2023/04/05 07:02:11;;;;;;;14.73;8.32;;;2.20;99.90;;;;;;5096154;28;20040;-79
2023/04/05 07:04:37;;;;;;;12.18;7.57;;;2.40;99.90;;;;;;5096797;28;20040;-79
2023/04/05 07:07:03;;;;;;;12.75;7.63;;;2.50;99.90;;;;;;5096307;28;20090;-80
2023/04/05 07:09:32;;;;;;;11.95;7.70;;;2.70;99.90;;;;;;5096630;28;20040;-79
2023/04/05 07:11:59;;;;;;;15.13;7.78;;;2.90;99.90;;;;;;5096339;28;20047;-80
2023/04/05 07:14:24;;;;;;;11.43;7.43;;;3.10;99.90;;;;;;5096155;28;20067;-79
2023/04/05 07:16:53;;;;;;;10.50;7.15;;;3.20;99.90;;;;;;5094705;28;20531;-80
2023/04/05 07:19:19;;;;;;;11.77;7.70;;;3.40;99.90;;;;;;5095501;28;20124;-80
2023/04/05 07:21:45;;;;;;;14.32;8.02;;;3.80;99.90;;;;;;5094381;28;20459;-80
2023/04/05 07:24:10;;;;;;;12.85;7.40;;;3.60;99.90;;;;;;5096116;28;20106;-81
2023/04/05 07:26:36;;;;;;;13.50;6.88;;;3.80;99.90;;;;;;5077645;28;20052;-79
2023/04/05 07:29:03;;;;;;;14.25;7.95;;;3.90;99.90;;;;;;5095399;28;20051;-77
2023/04/05 07:31:30;;;;;;;11.18;7.28;;;4.00;99.90;;;;;;5095440;28;20101;-77
2023/04/05 07:33:57;;;;;;;12.07;7.15;;;4.10;99.90;;;;;;5095171;28;20561;-76
2023/04/05 07:36:23;;;;;;;13.90;8.23;;;4.20;99.90;;;;;;5095314;28;20044;-78
2023/04/05 07:38:48;;;;;;;12.90;8.15;;;4.40;99.90;;;;;;5094988;28;20082;-79
2023/04/05 07:41:17;;;;;;;10.73;7.57;;;4.50;99.90;;;;;;5095172;28;20075;-78
2023/04/05 07:43:43;;;;;;;15.90;7.72;;;4.60;99.90;;;;;;5095346;28;20471;-78
2023/04/05 07:46:08;;;;;;;15.00;7.15;;;4.70;99.90;;;;;;5094780;28;20051;-77
2023/04/05 07:48:34;;;;;;;14.48;6.47;;;4.80;99.90;;;;;;5095163;28;20505;-79
2023/04/05 07:51:07;;;;;;;10.05;6.55;;;5.00;99.90;;;;;;5094909;28;20048;-78
2023/04/05 07:53:33;;;;;;;7.80;6.53;;;5.10;99.90;;;;;;5095202;28;20146;-77
2023/04/05 07:56:06;;;;;;;7.97;5.65;;;5.20;99.90;;;;;;5094993;28;20135;-77
2023/04/05 07:58:33;;;;;;;9.63;6.05;;;5.30;99.90;;;;;;5095053;28;20042;-77
2023/04/05 08:01:00;;;;;;;10.00;5.05;;;5.50;99.90;;;;;;5094879;28;20138;-76
2023/04/05 08:03:26;;;;;;;;;;;5.50;99.90;;;;;;5094960;28;20044;-76
2023/04/05 08:05:51;;;;;;;9.48;5.72;;;5.60;99.90;;;;;;5094941;28;19930;-78
2023/04/05 08:08:17;;;;;;;12.15;5.28;;;5.80;99.90;;;;;;5094831;28;20097;-77
2023/04/05 08:10:42;;;;;;;10.68;5.35;;;5.70;99.90;;;;;;5094816;28;20047;-82
2023/04/05 08:13:08;;;;;;;8.73;4.80;;;5.80;99.90;;;;;;5110852;28;20430;-77
2023/04/05 08:15:33;;;;;;;9.48;4.55;;;5.90;99.90;;;;;;5093894;28;20136;-76
2023/04/05 08:17:59;;;;;;;8.45;4.57;;;6.00;99.90;;;;;;5085531;28;20036;-77
2023/04/05 08:20:25;;;;;;;9.23;4.65;;;6.10;99.90;;;;;;5089229;28;20044;-85
2023/04/05 08:22:50;;;;;;;10.65;4.43;;;6.40;99.90;;;;;;5110321;28;20122;-84
2023/04/05 08:25:16;;;;;;;7.35;4.13;;;6.30;99.90;;;;;;5093337;28;20040;-86
2023/04/05 08:27:41;;;;;;;5.90;4.00;;;6.50;99.90;;;;;;5093572;28;20051;-83
2023/04/05 08:30:08;;;;;;;10.85;4.43;;;6.60;99.90;;;;;;5094499;28;20091;-81
2023/04/05 08:32:34;;;;;;;7.63;4.00;;;6.70;99.90;;;;;;5110114;28;20097;-81
2023/04/05 08:34:59;;;;;;;6.13;3.67;;;6.90;99.90;;;;;;5093882;28;20097;-78
2023/04/05 08:37:25;;;;;;;8.52;3.95;;;7.00;99.90;;;;;;5094362;28;20395;-79
2023/04/05 08:39:51;;;;;;;6.05;4.25;;;7.10;99.90;;;;;;5093955;28;20063;-80
2023/04/05 08:42:31;;;;;;;6.78;3.88;;;7.10;99.90;;;;;;5094140;28;20044;-79
2023/04/05 08:45:02;;;;;;;7.90;3.97;;;7.20;99.90;;;;;;5093672;28;20148;-81
2023/04/05 08:47:28;;;;;;;6.03;4.18;;;7.30;99.90;;;;;;5093958;28;20079;-85
2023/04/05 08:49:54;;;;;;;9.63;3.63;;;7.40;99.90;;;;;;5075721;28;20055;-80
2023/04/05 08:52:20;;;;;;;6.47;3.40;;;7.50;99.90;;;;;;5093990;28;20048;-81
2023/04/05 08:54:46;;;;;;;5.57;3.10;;;7.60;99.90;;;;;;5108294;28;20050;-83
2023/04/05 08:57:13;;;;;;;4.35;3.13;;;7.70;99.90;;;;;;5109687;28;20070;-85
2023/04/05 08:59:42;;;;;;;7.90;3.58;;;7.80;99.90;;;;;;5093953;28;20129;-80
2023/04/05 09:02:15;;;;;;;5.65;2.97;;;7.80;99.90;;;;;;5093784;28;20052;-81
2023/04/05 09:04:45;;;;;;;7.13;3.33;;;7.90;99.90;;;;;;5076177;28;20050;-78
2023/04/05 09:07:13;;;;;;;6.30;3.47;;;8.00;99.90;;;;;;5093896;28;20048;-82
2023/04/05 09:09:41;;;;;;;4.82;2.80;;;8.70;99.90;;;;;;5093711;28;20109;-78
2023/04/05 09:12:07;;;;;;;5.72;3.00;;;8.10;99.90;;;;;;5093550;28;20051;-81
2023/04/05 09:14:34;;;;;;;5.50;3.03;;;8.30;99.90;;;;;;5093706;28;20048;-80
2023/04/05 09:17:03;;;;;;;6.40;3.63;;;8.40;99.90;;;;;;5093458;28;20075;-82
2023/04/05 09:19:29;;;;;;;7.90;3.47;;;8.50;99.90;;;;;;5093853;28;20427;-79
2023/04/05 09:22:02;;;;;;;6.27;3.10;;;8.50;99.90;;;;;;5093341;28;20044;-78
2023/04/05 09:24:39;;;;;;;5.28;3.00;;;9.30;99.90;;;;;;5093128;28;20153;-79
2023/04/05 09:27:08;;;;;;;6.35;3.15;;;8.60;99.90;;;;;;5093734;28;20044;-78
2023/04/05 09:29:34;;;;;;;5.10;3.05;;;8.70;98.90;;;;;;5093512;28;20044;-79
2023/04/05 09:32:01;;;;;;;4.80;2.60;;;8.70;98.10;;;;;;5093288;28;20040;-81
2023/04/05 09:34:30;;;;;;;4.90;2.70;;;8.70;97.70;;;;;;5093442;28;20039;-79
2023/04/05 09:36:55;;;;;;;6.53;2.97;;;8.60;96.90;;;;;;5092815;28;20059;-81
2023/04/05 09:39:27;;;;;;;4.95;2.90;;;8.70;99.20;;;;;;5093458;28;20044;-81
2023/04/05 09:42:11;;;;;;;6.03;2.83;;;8.70;97.70;;;;;;5092127;28;20039;-82
2023/04/05 09:45:04;;;;;;;7.15;2.90;;;9.00;97.60;;;;;;5091906;28;20051;-81
2023/04/05 09:47:31;;;;;;;5.28;3.15;;;8.80;97.80;;;;;;5096499;28;20051;-81
2023/04/05 09:50:04;;;;;;;7.82;2.70;;;9.30;98.20;;;;;;5096171;28;20060;-80
2023/04/05 09:52:31;;;;;;;5.05;3.50;;;9.10;99.20;;;;;;5096661;28;20056;-81
2023/04/05 09:54:58;;;;;;;6.28;3.22;;;9.20;98.20;;;;;;5097321;28;20044;-81
2023/04/05 09:57:26;;;;;;;8.40;3.20;;;9.20;96.50;;;;;;5097420;28;20048;-81
2023/04/05 09:59:52;;;;;;;5.97;3.25;;;9.40;96.70;;;;;;5097148;28;20467;-80
2023/04/05 10:02:18;;;;;;;8.35;3.40;;;9.30;97.60;;;;;;5096280;28;20087;-82
2023/04/05 10:04:48;;;;;;;6.45;3.30;;;9.30;96.40;;;;;;5079954;28;20067;-89
2023/04/05 10:07:15;;;;;;;6.95;3.45;;;9.50;97.20;;;;;;5076944;28;20534;-81
2023/04/05 10:09:43;;;;;;;5.38;3.50;;;9.40;95.20;;;;;;5076923;28;20056;-81
2023/04/05 10:12:11;;;;;;;4.88;3.10;;;9.40;96.00;;;;;;5092938;28;20045;-85
2023/04/05 10:14:38;;;;;;;4.80;3.58;;;10.20;96.10;;;;;;5081615;28;20127;-80
2023/04/05 10:17:30;;;;;;;6.07;3.33;;;9.70;96.90;;;;;;5077598;28;20048;-78
2023/04/05 10:20:04;;;;;;;4.43;2.95;;;9.70;95.70;;;;;;5076957;28;20040;-78
2023/04/05 10:22:58;;;;;;;6.20;3.25;;;9.80;94.80;;;;;;5075374;28;20102;-77
2023/04/05 10:25:43;;;;;;;6.53;3.00;;;9.80;96.20;;;;;;5076717;28;20048;-77
2023/04/05 10:28:32;;;;;;;5.05;3.28;;;9.80;95.10;;;;;;5076967;28;20043;-79
2023/04/05 10:31:07;;;;;;;5.75;3.30;;;9.90;94.90;;;;;;5092038;28;20392;-79
2023/04/05 10:33:44;;;;;;;4.10;3.08;;;10.00;95.50;;;;;;5076633;28;20382;-79
2023/04/05 10:36:38;;;;;;;6.03;3.28;;;10.00;94.50;;;;;;5076641;28;20131;-75
2023/04/05 10:39:09;;;;;;;5.80;3.20;;;9.90;93.30;;;;;;5076622;28;20051;-76
2023/04/05 10:41:51;;;;;;;6.97;3.28;;;9.50;93.30;;;;;;5093435;28;20055;-76
2023/04/05 10:44:17;;;;;;;5.05;3.35;;;9.40;93.80;;;;;;5094988;28;20091;-76
2023/04/05 10:46:44;;;;;;;6.72;3.30;;;9.50;94.20;;;;;;5094093;28;20071;-75
2023/04/05 10:49:10;;;;;;;4.28;2.97;;;9.60;93.80;;;;;;5096424;28;20054;-76
2023/04/05 10:51:37;;;;;;;5.77;3.37;;;9.70;93.60;;;;;;5095318;28;20051;-76
2023/04/05 10:54:04;;;;;;;4.70;3.20;;;9.90;92.50;;;;;;5096150;28;20134;-76
2023/04/05 10:56:31;;;;;;;4.78;3.05;;;9.80;92.10;;;;;;5095806;28;20476;-76
2023/04/05 10:58:57;;;;;;;;;;;9.90;91.50;;;;;;5096577;28;20040;-76
2023/04/05 11:01:24;;;;;;;6.03;3.15;;;10.10;95.00;;;;;;5096797;28;20053;-76
2023/04/05 11:03:51;;;;;;;6.15;3.08;;;10.20;93.60;;;;;;5096113;28;20114;-76
2023/04/05 11:06:17;;;;;;;;;;;10.20;93.10;;;;;;5096856;28;20054;-76
2023/04/05 11:08:44;;;;;;;8.48;3.45;;;10.20;92.60;;;;;;5096032;28;19927;-76
2023/04/05 11:11:13;;;;;;;5.25;3.40;;;10.30;92.70;;;;;;5095921;28;20480;-76
2023/04/05 11:13:55;;;;;;;6.00;3.35;;;10.50;92.70;;;;;;5095866;28;20479;-76
2023/04/05 11:16:36;;;;;;;5.75;3.20;;;10.50;92.70;;;;;;5095984;28;20048;-76
2023/04/05 11:19:02;;;;;;;4.82;3.08;;;10.70;93.80;;;;;;5096217;28;20044;-76
2023/04/05 11:21:30;;;;;;;7.05;3.30;;;10.80;92.90;;;;;;5096056;28;20480;-76
2023/04/05 11:24:07;;;;;;;3.85;2.80;;;10.70;92.70;;;;;;5095822;28;20049;-76
2023/04/05 11:26:55;;;;;;;5.93;2.95;;;10.80;93.00;;;;;;5096222;28;20091;-76
2023/04/05 11:29:58;;;;;;;6.95;3.35;;;11.00;91.40;;;;;;5095820;28;20076;-76
2023/04/05 11:32:41;;;;;;;5.65;3.50;;;11.00;91.50;;;;;;5013500;28;20042;-77
2023/04/05 11:35:25;;;;;;;5.60;3.45;;;11.00;91.00;;;;;;5089786;28;20100;-76
2023/04/05 11:37:59;;;;;;;5.57;3.45;;;10.90;92.20;;;;;;5095726;28;20040;-76
2023/04/05 11:40:36;;;;;;;6.60;3.28;;;11.00;91.90;;;;;;5095506;28;20130;-76
2023/04/05 11:43:08;;;;;;;9.68;3.53;;;11.10;90.80;;;;;;5095668;28;20063;-76
2023/04/05 11:45:36;;;;;;;7.88;3.35;;;11.10;91.60;;;;;;5095397;28;20048;-76
2023/04/05 11:48:13;;;;;;;6.47;3.67;;;11.10;90.50;;;;;;5095175;28;20044;-76
2023/04/05 11:50:44;;;;;;;5.38;3.22;;;11.00;90.40;;;;;;5095674;28;20059;-76
2023/04/05 11:53:15;;;;;;;5.95;3.33;;;11.10;90.90;;;;;;5095943;28;20062;-76
2023/04/05 11:55:51;;;;;;;5.80;3.60;;;11.10;90.40;;;;;;5098801;28;20036;-76
2023/04/05 11:58:24;;;;;;;9.43;3.58;;;11.10;92.00;;;;;;5098167;28;20036;-75
2023/04/05 12:00:57;;;;;;;5.47;3.67;;;11.30;92.70;;;;;;5095813;28;20040;-76
2023/04/05 12:03:23;;;;;;;4.28;2.90;;;11.40;92.40;;;;;;5100402;28;20059;-76
2023/04/05 12:05:52;;;;;;;6.53;3.28;;;11.40;90.40;;;;;;5103690;28;20040;-76
2023/04/05 12:08:19;;;;;;;4.20;2.80;;;11.90;90.80;;;;;;5101597;28;20040;-76
2023/04/05 12:10:55;;;;;;;5.13;3.40;;;11.20;92.00;;;;;;5109665;28;20111;-76
2023/04/05 12:13:26;;;;;;;5.03;3.40;;;11.70;91.20;;;;;;5107292;28;20036;-76
2023/04/05 12:15:51;;;;;;;4.85;3.17;;;11.40;91.30;;;;;;5105093;28;20044;-76
2023/04/05 12:18:17;;;;;;;10.60;3.40;;;11.30;89.80;;;;;;5107241;28;20103;-76
2023/04/05 12:20:43;;;;;;;7.68;3.67;;;11.30;91.50;;;;;;5098107;28;20475;-77
2023/04/05 12:23:08;;;;;;;7.28;3.65;;;11.40;91.70;;;;;;5094939;28;20082;-77
2023/04/05 12:25:37;;;;;;;6.13;3.13;;;11.30;89.90;;;;;;5094902;28;20087;-76
2023/04/05 12:28:04;;;;;;;6.45;3.78;;;11.40;90.90;;;;;;5094928;28;20036;-77
2023/04/05 12:30:35;;;;;;;6.05;3.33;;;11.40;91.40;;;;;;5094615;28;20101;-76
2023/04/05 12:33:07;;;;;;;7.22;3.42;;;11.40;90.20;;;;;;5094437;28;20048;-76
2023/04/05 12:35:34;;;;;;;6.40;3.55;;;11.40;90.30;;;;;;5093864;28;20047;-76
2023/04/05 12:38:06;;;;;;;5.28;2.92;;;11.30;90.30;;;;;;5094726;28;20130;-76
2023/04/05 12:40:36;;;;;;;4.72;3.25;;;11.40;90.40;;;;;;5094544;28;20048;-76
2023/04/05 12:43:06;;;;;;;5.45;3.28;;;11.50;88.60;;;;;;5094213;28;20040;-76
2023/04/05 12:45:38;;;;;;;6.20;3.42;;;11.60;89.40;;;;;;5094350;28;20047;-76
2023/04/05 12:48:07;;;;;;;6.15;3.72;;;11.40;90.10;;;;;;5094091;28;20132;-76
2023/04/05 12:50:33;;;;;;;4.65;3.35;;;11.50;90.30;;;;;;5094100;28;20130;-76
2023/04/05 12:53:07;;;;;;;6.05;3.35;;;11.60;90.70;;;;;;5094816;28;20119;-76
2023/04/05 12:55:43;;;;;;;7.97;3.92;;;11.70;90.90;;;;;;5094209;28;20118;-76